Time;durP1;ratioP1;P1;durP2;ratioP2;P2;SDS_P1;SDS_P2;PMS_P1;PMS_P2;Temp;Humidity;BMP_temperature;BMP_pressure;BME280_temperature;BME280_humidity;BME280_pressure;Samples;Min_cycle;Max_cycle;Signal;HPM_P1;HPM_P2
2022/01/29 00:00:50;;;;;;;43.90;12.18;;;6.50;99.90;;;;;;5053713;28;20393;-69
2022/01/29 00:03:16;;;;;;;39.03;11.80;;;7.20;99.90;;;;;;5053769;28;20229;-69
2022/01/29 00:05:41;;;;;;;39.60;11.55;;;7.10;99.90;;;;;;5053511;28;20056;-68
2022/01/29 00:08:07;;;;;;;30.13;11.15;;;6.90;99.90;;;;;;5053406;28;20401;-69
2022/01/29 00:10:33;;;;;;;34.88;10.73;;;7.10;99.90;;;;;;5052545;28;20037;-68
2022/01/29 00:12:58;;;;;;;39.60;10.80;;;6.90;99.90;;;;;;5052391;28;20084;-69
2022/01/29 00:15:24;;;;;;;40.40;11.13;;;7.00;99.90;;;;;;5053182;28;20471;-69
2022/01/29 00:17:50;;;;;;;38.38;11.50;;;7.20;99.90;;;;;;5052975;28;20047;-68
2022/01/29 00:20:16;;;;;;;33.60;11.50;;;7.00;99.90;;;;;;5053469;28;20128;-68
2022/01/29 00:22:43;;;;;;;33.30;11.13;;;7.20;99.90;;;;;;5053179;28;20048;-69
2022/01/29 00:25:10;;;;;;;38.63;10.18;;;7.60;99.90;;;;;;5035716;28;20041;-69
2022/01/29 00:27:36;;;;;;;38.88;10.93;;;7.10;99.90;;;;;;5052919;28;20087;-69
2022/01/29 00:30:13;;;;;;;33.42;10.73;;;7.30;99.90;;;;;;5053169;28;20051;-68
2022/01/29 00:32:39;;;;;;;31.40;10.82;;;7.30;99.90;;;;;;5053065;28;20062;-68
2022/01/29 00:35:06;;;;;;;42.58;10.65;;;7.40;99.90;;;;;;5052535;28;20045;-69
2022/01/29 00:37:32;;;;;;;32.42;10.80;;;7.00;99.90;;;;;;5052181;28;20061;-68
2022/01/29 00:39:58;;;;;;;;;;;7.30;99.90;;;;;;5053437;28;20506;-68
2022/01/29 00:42:24;;;;;;;33.55;10.75;;;7.30;99.90;;;;;;5052867;28;19976;-68
2022/01/29 00:44:49;;;;;;;28.40;10.65;;;7.30;99.90;;;;;;5052962;28;20045;-69
2022/01/29 00:47:15;;;;;;;31.73;10.88;;;7.20;99.90;;;;;;5052919;28;20124;-69
2022/01/29 00:49:42;;;;;;;31.63;11.77;;;9.20;99.90;;;;;;5052701;28;20045;-68
2022/01/29 00:52:09;;;;;;;37.72;10.20;;;7.30;99.90;;;;;;5053089;28;20058;-68
2022/01/29 00:54:35;;;;;;;36.65;10.40;;;7.40;99.90;;;;;;5052649;28;20068;-69
2022/01/29 00:57:01;;;;;;;33.28;10.63;;;7.30;99.90;;;;;;5051502;28;20033;-69
2022/01/29 00:59:26;;;;;;;44.33;11.30;;;7.50;99.90;;;;;;5052767;28;20056;-68
2022/01/29 01:01:52;;;;;;;39.20;11.63;;;7.30;99.90;;;;;;5051800;28;20052;-68
2022/01/29 01:04:18;;;;;;;36.88;9.63;;;7.20;99.90;;;;;;5052487;28;20405;-68
2022/01/29 01:06:44;;;;;;;33.25;11.00;;;7.30;99.90;;;;;;5052700;28;20546;-68
2022/01/29 01:09:10;;;;;;;25.60;9.50;;;7.50;99.90;;;;;;5051713;28;20071;-67
2022/01/29 01:11:35;;;;;;;32.58;10.70;;;7.50;99.90;;;;;;5052327;28;20496;-68
2022/01/29 01:14:01;;;;;;;26.58;9.85;;;7.50;99.90;;;;;;5052436;28;20041;-68
2022/01/29 01:16:27;;;;;;;33.20;10.55;;;7.60;99.90;;;;;;5052588;28;20051;-67
2022/01/29 01:18:52;;;;;;;34.72;9.77;;;8.10;99.90;;;;;;5052404;28;20076;-69
2022/01/29 01:21:18;;;;;;;36.65;10.73;;;7.20;99.90;;;;;;5052339;28;20049;-68
2022/01/29 01:23:44;;;;;;;31.05;10.63;;;7.70;99.90;;;;;;5052682;28;20094;-68
2022/01/29 01:26:10;;;;;;;41.38;10.88;;;7.70;99.90;;;;;;5052278;28;20041;-67
2022/01/29 01:28:35;;;;;;;30.98;9.80;;;7.40;99.90;;;;;;5052297;28;20123;-68
2022/01/29 01:31:01;;;;;;;31.00;10.27;;;7.60;99.90;;;;;;5054881;28;20136;-68
2022/01/29 01:33:27;;;;;;;33.58;10.77;;;7.60;99.90;;;;;;5056287;28;20045;-68
2022/01/29 01:35:58;;;;;;;27.85;10.45;;;8.40;99.90;;;;;;5056398;28;20068;-69
2022/01/29 01:38:43;;;;;;;33.53;11.20;;;7.40;99.90;;;;;;5056452;28;20064;-68
2022/01/29 01:41:13;;;;;;;23.95;11.25;;;7.60;99.90;;;;;;5056151;28;20041;-68
2022/01/29 01:43:39;;;;;;;26.60;11.15;;;7.50;99.90;;;;;;5056142;28;20041;-69
2022/01/29 01:46:04;;;;;;;40.17;11.55;;;7.80;99.90;;;;;;5056056;28;20048;-68
2022/01/29 01:48:30;;;;;;;34.22;11.18;;;7.60;99.90;;;;;;5056374;28;20117;-69
2022/01/29 01:50:57;;;;;;;30.88;10.85;;;7.70;99.90;;;;;;5056060;28;20416;-68
2022/01/29 01:53:24;;;;;;;35.33;12.55;;;7.80;99.90;;;;;;5056018;28;20127;-68
2022/01/29 01:55:50;;;;;;;33.08;11.32;;;9.00;99.90;;;;;;5055856;28;20049;-69
2022/01/29 01:58:17;;;;;;;30.77;11.73;;;7.60;99.90;;;;;;5056118;28;20052;-69
2022/01/29 02:00:42;;;;;;;;;;;7.90;99.90;;;;;;5056325;28;20052;-67
2022/01/29 02:03:09;;;;;;;32.53;12.80;;;7.60;99.90;;;;;;5056120;28;20024;-68
2022/01/29 02:05:35;;;;;;;37.13;12.30;;;8.00;99.90;;;;;;5055971;28;20040;-68
2022/01/29 02:08:02;;;;;;;39.95;11.77;;;8.00;99.90;;;;;;5056017;28;20045;-67
2022/01/29 02:10:28;;;;;;;33.40;11.50;;;8.00;99.90;;;;;;5055573;28;20049;-68
2022/01/29 02:12:57;;;;;;;;;;;7.70;99.90;;;;;;5056279;28;20134;-67
2022/01/29 02:15:24;;;;;;;34.90;11.57;;;8.10;99.90;;;;;;5055504;28;20372;-68
2022/01/29 02:17:49;;;;;;;;;;;7.80;99.90;;;;;;5054965;28;20045;-68
2022/01/29 02:20:18;;;;;;;34.00;11.18;;;8.30;99.90;;;;;;5055702;28;19974;-68
2022/01/29 02:22:44;;;;;;;36.70;12.23;;;8.30;99.90;;;;;;5055407;28;20080;-68
2022/01/29 02:25:29;;;;;;;;;;;8.00;99.90;;;;;;5055899;28;20052;-67
2022/01/29 02:28:02;;;;;;;32.10;11.45;;;8.10;99.90;;;;;;5055319;28;19925;-67
2022/01/29 02:30:30;;;;;;;39.55;13.57;;;7.90;99.90;;;;;;5055548;28;20078;-68
2022/01/29 02:32:57;;;;;;;37.25;12.02;;;7.90;99.90;;;;;;5055390;28;20052;-68
2022/01/29 02:35:23;;;;;;;37.13;11.98;;;8.00;99.90;;;;;;5055269;28;20143;-68
2022/01/29 02:37:51;;;;;;;39.42;12.80;;;8.30;99.90;;;;;;5055170;28;20095;-67
2022/01/29 02:40:19;;;;;;;44.55;13.50;;;8.00;99.90;;;;;;5054983;28;20048;-68
2022/01/29 02:42:45;;;;;;;36.88;11.73;;;8.10;99.90;;;;;;5055128;28;20401;-68
2022/01/29 02:45:11;;;;;;;32.63;12.90;;;8.30;99.90;;;;;;5055245;28;20110;-67
2022/01/29 02:47:36;;;;;;;33.03;11.63;;;8.20;99.90;;;;;;5055352;28;20131;-67
2022/01/29 02:50:02;;;;;;;36.42;12.63;;;8.80;99.90;;;;;;5055030;28;20052;-67
2022/01/29 02:52:28;;;;;;;43.67;12.85;;;7.80;99.90;;;;;;5054809;28;20452;-68
2022/01/29 02:54:54;;;;;;;34.92;12.50;;;7.90;99.90;;;;;;5054788;28;20063;-69
2022/01/29 02:57:19;;;;;;;44.40;12.95;;;7.80;99.90;;;;;;5055121;28;20055;-67
2022/01/29 02:59:45;;;;;;;40.05;12.50;;;7.80;99.90;;;;;;5054941;28;20548;-68
2022/01/29 03:02:10;;;;;;;40.28;13.25;;;8.20;99.90;;;;;;5054072;28;20115;-68
2022/01/29 03:04:36;;;;;;;39.60;12.15;;;8.50;99.90;;;;;;5053583;28;20041;-68
2022/01/29 03:07:02;;;;;;;43.30;12.98;;;8.20;99.90;;;;;;5053484;28;20055;-68
2022/01/29 03:09:28;;;;;;;39.97;11.30;;;8.00;99.90;;;;;;5054505;28;20045;-68
2022/01/29 03:11:56;;;;;;;34.20;12.38;;;8.70;99.90;;;;;;5054734;28;20041;-68
2022/01/29 03:14:22;;;;;;;37.63;11.75;;;8.10;99.90;;;;;;5054659;28;20045;-68
2022/01/29 03:16:47;;;;;;;40.75;11.65;;;8.90;99.90;;;;;;5054493;28;20401;-68
2022/01/29 03:19:13;;;;;;;36.70;12.75;;;8.30;99.90;;;;;;5054592;28;20049;-68
2022/01/29 03:21:39;;;;;;;37.55;13.73;;;8.20;99.90;;;;;;5054113;28;20049;-68
2022/01/29 03:24:05;;;;;;;38.28;13.82;;;7.70;99.90;;;;;;5054394;28;20037;-68
2022/01/29 03:26:31;;;;;;;;;;;8.00;99.90;;;;;;5054802;28;20102;-67
2022/01/29 03:28:56;;;;;;;36.53;13.05;;;7.90;99.90;;;;;;5054396;28;19924;-68
2022/01/29 03:31:26;;;;;;;37.03;13.35;;;8.20;99.90;;;;;;5054360;28;20473;-68
2022/01/29 03:33:52;;;;;;;41.47;14.10;;;8.10;99.90;;;;;;5054081;28;20045;-68
2022/01/29 03:36:18;;;;;;;;;;;8.00;99.90;;;;;;5054309;28;20412;-68
2022/01/29 03:38:44;;;;;;;41.08;14.65;;;8.00;99.90;;;;;;5053941;28;19921;-68
2022/01/29 03:41:13;;;;;;;41.78;14.23;;;8.00;99.90;;;;;;5053230;28;20056;-68
2022/01/29 03:43:45;;;;;;;40.60;13.32;;;7.70;99.90;;;;;;5053986;28;20052;-66
2022/01/29 03:46:10;;;;;;;36.50;14.07;;;8.10;99.90;;;;;;5054026;28;20133;-68
2022/01/29 03:48:36;;;;;;;34.65;13.35;;;8.70;99.90;;;;;;5053933;28;20084;-68
2022/01/29 03:51:02;;;;;;;46.58;13.88;;;8.20;99.90;;;;;;5053605;28;20049;-68
2022/01/29 03:53:28;;;;;;;35.50;14.75;;;9.40;99.90;;;;;;5053096;28;20045;-68
2022/01/29 03:55:53;;;;;;;39.72;13.45;;;8.50;99.90;;;;;;5053916;28;20405;-67
2022/01/29 03:58:19;;;;;;;44.25;15.18;;;8.30;99.90;;;;;;5053968;28;20448;-68
2022/01/29 04:00:44;;;;;;;38.40;14.60;;;8.70;99.90;;;;;;5053689;28;20392;-67
2022/01/29 04:03:10;;;;;;;40.25;14.68;;;9.50;99.90;;;;;;5052875;28;20468;-68
2022/01/29 04:05:36;;;;;;;42.70;15.23;;;8.40;99.90;;;;;;5053368;28;20040;-67
2022/01/29 04:08:02;;;;;;;38.60;16.58;;;8.40;99.90;;;;;;5053521;28;20275;-68
2022/01/29 04:10:29;;;;;;;;;;;8.40;99.90;;;;;;5054249;28;20053;-68
2022/01/29 04:12:55;;;;;;;36.05;15.73;;;8.10;99.90;;;;;;5053526;28;19920;-68
2022/01/29 04:15:22;;;;;;;34.35;14.95;;;8.60;99.90;;;;;;5053662;28;20052;-67
2022/01/29 04:17:48;;;;;;;35.78;15.48;;;8.20;99.90;;;;;;5053343;28;20045;-67
2022/01/29 04:20:13;;;;;;;40.00;16.08;;;8.30;99.90;;;;;;5053220;28;20041;-69
2022/01/29 04:22:40;;;;;;;37.15;16.30;;;8.10;99.90;;;;;;5052154;28;20053;-67
2022/01/29 04:25:06;;;;;;;37.28;16.20;;;8.30;99.90;;;;;;5053423;28;20037;-69
2022/01/29 04:27:41;;;;;;;39.00;15.52;;;8.10;99.90;;;;;;5052077;28;20052;-68
2022/01/29 04:30:18;;;;;;;39.08;14.88;;;9.10;99.90;;;;;;5053062;28;20041;-67
2022/01/29 04:35:12;;;;;;;40.17;16.80;;;8.50;99.90;;;;;;5052529;28;20057;-67
2022/01/29 04:37:38;;;;;;;36.67;16.90;;;8.20;99.90;;;;;;5053602;28;20544;-70
2022/01/29 04:40:04;;;;;;;38.83;16.70;;;8.00;99.90;;;;;;5052964;28;20056;-67
2022/01/29 04:42:29;;;;;;;47.47;19.17;;;8.30;99.90;;;;;;5052948;28;20040;-68
2022/01/29 04:44:55;;;;;;;42.90;16.33;;;8.30;99.90;;;;;;5052915;28;20043;-67
2022/01/29 04:47:21;;;;;;;45.45;16.88;;;8.10;99.90;;;;;;5052687;28;20044;-68
2022/01/29 04:49:46;;;;;;;35.00;15.68;;;8.50;99.90;;;;;;5053077;28;20542;-68
2022/01/29 04:52:12;;;;;;;36.10;16.25;;;8.70;99.90;;;;;;5053037;28;20060;-68
2022/01/29 04:54:38;;;;;;;45.63;18.08;;;8.70;99.90;;;;;;5052998;28;20037;-67
2022/01/29 04:57:03;;;;;;;33.03;17.23;;;8.60;99.90;;;;;;5052753;28;20500;-67
2022/01/29 04:59:29;;;;;;;46.40;17.63;;;8.40;99.90;;;;;;5051711;28;20044;-68
2022/01/29 05:01:55;;;;;;;38.28;17.67;;;8.30;99.90;;;;;;5052653;28;20131;-67
2022/01/29 05:04:20;;;;;;;42.17;15.95;;;9.30;99.90;;;;;;5051602;28;20052;-68
2022/01/29 05:06:46;;;;;;;40.60;17.55;;;9.30;99.90;;;;;;5052824;28;20052;-68
2022/01/29 05:09:12;;;;;;;38.30;15.82;;;8.30;99.90;;;;;;5052695;28;20070;-67
2022/01/29 05:11:38;;;;;;;41.75;16.23;;;8.60;99.90;;;;;;5051630;28;20098;-66
2022/01/29 05:14:08;;;;;;;40.80;17.05;;;8.60;99.90;;;;;;5052379;28;20049;-69
2022/01/29 05:16:53;;;;;;;41.80;19.05;;;9.10;99.90;;;;;;5052414;28;20501;-68
2022/01/29 05:27:48;;;;;;;41.92;18.17;;;8.60;99.90;;;;;;5048860;28;20141;-68
2022/01/29 05:30:14;;;;;;;34.50;16.60;;;8.70;99.90;;;;;;5052512;28;20136;-69
2022/01/29 05:32:40;;;;;;;48.45;17.85;;;8.30;99.90;;;;;;5052251;28;20049;-68
2022/01/29 05:35:06;;;;;;;36.83;17.33;;;9.00;99.90;;;;;;5052108;28;20455;-67
2022/01/29 05:37:32;;;;;;;38.80;17.40;;;9.00;99.90;;;;;;5052279;28;20064;-67
2022/01/29 05:39:57;;;;;;;34.80;16.42;;;8.30;99.90;;;;;;5052448;28;20053;-68
2022/01/29 05:42:23;;;;;;;34.25;16.83;;;10.20;99.90;;;;;;5052712;28;20051;-68
2022/01/29 05:44:49;;;;;;;38.80;17.40;;;10.30;99.90;;;;;;5052271;28;20041;-67
2022/01/29 05:47:14;;;;;;;35.55;17.17;;;8.70;99.90;;;;;;5052333;28;20044;-68
2022/01/29 05:49:40;;;;;;;40.72;16.10;;;8.50;99.90;;;;;;5052190;28;20076;-69
2022/01/29 05:52:06;;;;;;;37.97;16.92;;;8.70;99.90;;;;;;5052068;28;20048;-68
2022/01/29 05:54:32;;;;;;;37.63;16.05;;;8.70;99.90;;;;;;5052587;28;20049;-68
2022/01/29 05:56:57;;;;;;;38.88;16.38;;;8.50;99.90;;;;;;5052251;28;20077;-68
2022/01/29 05:59:23;;;;;;;38.95;16.80;;;8.60;99.90;;;;;;5052292;28;20045;-68
2022/01/29 06:01:49;;;;;;;36.47;16.52;;;8.60;99.90;;;;;;5050702;28;20037;-68
2022/01/29 06:04:14;;;;;;;33.83;15.38;;;8.70;99.90;;;;;;5052248;28;20076;-67
2022/01/29 06:06:40;;;;;;;29.83;15.18;;;8.90;99.90;;;;;;5051961;28;20116;-68
2022/01/29 06:09:06;;;;;;;36.15;16.67;;;8.60;99.90;;;;;;5052408;28;20473;-67
2022/01/29 06:11:32;;;;;;;33.90;15.45;;;9.70;99.90;;;;;;5052030;28;20071;-67
2022/01/29 06:13:59;;;;;;;35.33;15.93;;;8.50;99.90;;;;;;5051861;28;20041;-66
2022/01/29 06:16:24;;;;;;;34.30;15.75;;;8.70;99.90;;;;;;5053682;28;20510;-67
2022/01/29 06:18:50;;;;;;;35.55;15.88;;;9.20;99.90;;;;;;5055612;28;20044;-67
2022/01/29 06:21:16;;;;;;;32.08;14.75;;;8.70;99.90;;;;;;5055570;28;20110;-68
2022/01/29 06:23:43;;;;;;;33.42;16.65;;;9.80;99.90;;;;;;5055559;28;20041;-67
2022/01/29 06:26:11;;;;;;;28.63;16.55;;;8.70;99.90;;;;;;5054645;28;20525;-67
2022/01/29 06:28:37;;;;;;;35.28;15.57;;;8.90;99.90;;;;;;5054314;28;20048;-67
2022/01/29 06:31:03;;;;;;;31.50;15.35;;;8.50;99.90;;;;;;5055222;28;20053;-67
2022/01/29 06:33:29;;;;;;;;;;;9.40;99.90;;;;;;5055730;28;20150;-67
2022/01/29 06:35:55;;;;;;;35.53;16.63;;;10.10;99.90;;;;;;5055069;28;19960;-67
2022/01/29 06:38:21;;;;;;;34.28;15.55;;;9.00;99.90;;;;;;5054245;28;20574;-67
2022/01/29 06:40:47;;;;;;;38.42;17.05;;;9.20;99.90;;;;;;5055311;28;20052;-68
2022/01/29 06:43:13;;;;;;;34.90;17.13;;;;;;;;;;5055318;28;20059;-68
2022/01/29 06:45:41;;;;;;;33.80;17.48;;;8.30;99.90;;;;;;5053768;28;20037;-67
2022/01/29 06:48:07;;;;;;;35.72;17.33;;;9.20;99.90;;;;;;5055049;28;20508;-67
2022/01/29 06:50:34;;;;;;;33.40;16.20;;;8.50;99.90;;;;;;5054814;28;20128;-67
2022/01/29 06:53:00;;;;;;;39.10;15.55;;;9.10;99.90;;;;;;5055202;28;20045;-65
2022/01/29 06:55:26;;;;;;;31.90;16.50;;;9.70;99.90;;;;;;5055241;28;20519;-67
2022/01/29 06:57:51;;;;;;;38.50;15.00;;;8.70;99.90;;;;;;5054961;28;20509;-67
2022/01/29 07:00:17;;;;;;;41.67;16.70;;;9.20;99.90;;;;;;5054728;28;20367;-67
2022/01/29 07:02:43;;;;;;;32.97;16.20;;;8.70;99.90;;;;;;5054814;28;20045;-67
2022/01/29 07:05:12;;;;;;;35.95;16.27;;;8.50;99.90;;;;;;5046978;28;20507;-69
2022/01/29 07:07:38;;;;;;;27.92;15.18;;;8.60;99.90;;;;;;5033632;28;20042;-67
2022/01/29 07:10:05;;;;;;;;;;;8.90;99.90;;;;;;5034371;28;20461;-68
2022/01/29 07:12:30;;;;;;;30.55;15.25;;;9.00;99.90;;;;;;5033621;28;19921;-67
2022/01/29 07:14:56;;;;;;;32.33;14.52;;;9.00;99.90;;;;;;5033783;28;20048;-67
2022/01/29 07:17:23;;;;;;;32.63;15.05;;;9.70;99.90;;;;;;5033447;28;20501;-67
2022/01/29 07:19:51;;;;;;;34.30;14.73;;;8.80;99.90;;;;;;5035194;28;20076;-68
2022/01/29 07:22:17;;;;;;;36.97;15.32;;;9.50;99.90;;;;;;5029420;28;20462;-68
2022/01/29 07:24:43;;;;;;;33.88;14.05;;;8.60;99.90;;;;;;5033531;28;20124;-65
2022/01/29 07:27:09;;;;;;;29.52;13.70;;;8.60;99.90;;;;;;5031510;28;20141;-69
2022/01/29 07:29:35;;;;;;;32.70;14.27;;;8.70;99.90;;;;;;5048374;28;20432;-67
2022/01/29 07:32:01;;;;;;;32.08;14.00;;;8.90;99.90;;;;;;5033197;28;20045;-68
2022/01/29 07:34:28;;;;;;;32.63;14.02;;;8.50;99.90;;;;;;5032416;28;20042;-66
2022/01/29 07:36:54;;;;;;;;;;;10.00;99.90;;;;;;5032603;28;20053;-66
2022/01/29 07:39:21;;;;;;;28.83;12.83;;;8.80;99.90;;;;;;5033336;28;20462;-65
2022/01/29 07:41:47;;;;;;;26.98;13.18;;;9.90;99.90;;;;;;5033141;28;20405;-69
2022/01/29 07:44:14;;;;;;;26.55;12.93;;;8.60;99.90;;;;;;5032438;28;20660;-66
2022/01/29 07:46:40;;;;;;;26.25;11.85;;;8.50;99.90;;;;;;5032675;28;20041;-66
2022/01/29 07:49:06;;;;;;;20.83;11.02;;;8.50;99.90;;;;;;5032505;28;20053;-66
2022/01/29 07:51:32;;;;;;;26.17;11.32;;;8.80;99.90;;;;;;5032711;28;20045;-66
2022/01/29 07:53:58;;;;;;;33.13;12.50;;;8.90;99.90;;;;;;5028843;28;20129;-66
2022/01/29 07:56:24;;;;;;;;;;;9.30;99.90;;;;;;5032875;28;20154;-67
2022/01/29 07:58:51;;;;;;;31.25;12.57;;;9.90;99.90;;;;;;5032217;28;20020;-66
2022/01/29 08:01:17;;;;;;;25.58;11.82;;;8.70;99.90;;;;;;5033046;28;20057;-66
2022/01/29 08:03:50;;;;;;;;;;;8.90;99.90;;;;;;5033095;28;20073;-67
2022/01/29 08:06:18;;;;;;;26.60;12.52;;;8.70;99.90;;;;;;5032655;28;19927;-67
2022/01/29 08:08:44;;;;;;;29.60;11.85;;;8.60;99.90;;;;;;5032296;28;20504;-67
2022/01/29 08:11:11;;;;;;;23.80;10.05;;;9.10;99.90;;;;;;5031157;28;20448;-67
2022/01/29 08:13:37;;;;;;;32.38;11.05;;;9.00;99.90;;;;;;5032107;28;20041;-73
2022/01/29 08:16:03;;;;;;;29.10;11.35;;;8.70;99.90;;;;;;5030138;28;20054;-68
2022/01/29 08:18:29;;;;;;;;;;;8.80;99.90;;;;;;5032789;28;20042;-67
2022/01/29 08:20:55;;;;;;;26.17;9.90;;;8.90;99.90;;;;;;5031758;28;19921;-67
2022/01/29 08:23:21;;;;;;;21.60;9.43;;;9.40;99.90;;;;;;5033366;28;20458;-66
2022/01/29 08:25:48;;;;;;;30.60;10.18;;;8.90;99.90;;;;;;5033263;28;20394;-67
2022/01/29 08:28:14;;;;;;;19.77;8.95;;;9.70;99.90;;;;;;5032673;28;20076;-70
2022/01/29 08:30:40;;;;;;;21.70;9.48;;;8.50;99.90;;;;;;5032293;28;20045;-71
2022/01/29 08:33:08;;;;;;;23.05;8.32;;;9.10;99.90;;;;;;5033317;28;20081;-71
2022/01/29 08:35:35;;;;;;;16.15;8.10;;;9.40;99.90;;;;;;5033264;28;20057;-70
2022/01/29 08:38:01;;;;;;;21.23;9.05;;;9.30;99.90;;;;;;5032259;28;20383;-70
2022/01/29 08:40:27;;;;;;;27.73;8.60;;;9.00;99.90;;;;;;5032846;28;20048;-71
2022/01/29 08:42:53;;;;;;;21.35;8.85;;;9.10;99.90;;;;;;5032186;28;20406;-72
2022/01/29 08:45:19;;;;;;;;;;;9.10;99.90;;;;;;5033234;28;20402;-70
2022/01/29 08:47:46;;;;;;;16.15;7.75;;;9.40;99.90;;;;;;5033172;28;19991;-72
2022/01/29 08:50:13;;;;;;;20.05;6.88;;;9.40;99.90;;;;;;5032977;28;20397;-71
2022/01/29 08:52:39;;;;;;;15.52;7.10;;;9.30;99.90;;;;;;5032230;28;20052;-70
2022/01/29 08:55:07;;;;;;;17.73;7.63;;;10.80;99.90;;;;;;5032712;28;20414;-70
2022/01/29 08:57:33;;;;;;;17.10;8.05;;;9.40;99.90;;;;;;5031977;28;20061;-72
2022/01/29 09:00:00;;;;;;;18.00;7.25;;;9.60;99.90;;;;;;5031719;28;20398;-69
2022/01/29 09:02:26;;;;;;;20.95;6.88;;;10.10;99.90;;;;;;5032867;28;20049;-70
2022/01/29 09:04:57;;;;;;;20.40;7.07;;;10.30;99.90;;;;;;5033101;28;20130;-70
2022/01/29 09:07:23;;;;;;;18.17;6.88;;;9.80;99.90;;;;;;5031597;28;20046;-71
2022/01/29 09:09:49;;;;;;;;;;;9.10;99.90;;;;;;5031796;28;20038;-71
2022/01/29 09:12:15;;;;;;;11.32;6.50;;;10.10;99.90;;;;;;5032667;28;19921;-71
2022/01/29 09:14:41;;;;;;;12.80;6.30;;;10.20;99.90;;;;;;5032431;28;20477;-71
2022/01/29 09:17:06;;;;;;;19.70;6.15;;;9.30;99.90;;;;;;5032622;28;20071;-70
2022/01/29 09:19:32;;;;;;;14.25;6.40;;;9.50;99.90;;;;;;5031674;28;20107;-70
2022/01/29 09:21:58;;;;;;;16.73;6.15;;;9.30;99.90;;;;;;5031494;28;20046;-71
2022/01/29 09:24:24;;;;;;;13.70;6.22;;;9.30;99.90;;;;;;5032310;28;20046;-70
2022/01/29 09:26:50;;;;;;;20.40;6.85;;;9.30;99.90;;;;;;5031669;28;20128;-69
2022/01/29 09:29:16;;;;;;;13.05;6.03;;;9.10;99.90;;;;;;5032344;28;20037;-71
2022/01/29 09:31:41;;;;;;;15.32;6.40;;;9.50;99.90;;;;;;5032709;28;20057;-70
2022/01/29 09:34:07;;;;;;;14.73;6.00;;;9.50;99.90;;;;;;5064393;28;20038;-70
2022/01/29 09:36:33;;;;;;;15.35;6.13;;;9.60;99.90;;;;;;5032292;28;20144;-71
2022/01/29 09:38:58;;;;;;;20.35;6.13;;;9.60;99.90;;;;;;5032232;28;20056;-71
2022/01/29 09:41:27;;;;;;;13.55;5.22;;;10.20;99.90;;;;;;5032254;28;20060;-70
2022/01/29 09:43:53;;;;;;;15.85;6.15;;;10.50;99.90;;;;;;5029214;28;20061;-68
2022/01/29 09:46:19;;;;;;;18.88;5.63;;;9.60;99.90;;;;;;5030882;28;20048;-68
2022/01/29 09:48:45;;;;;;;16.83;5.45;;;9.80;99.90;;;;;;5032157;28;20498;-67
2022/01/29 09:51:14;;;;;;;22.20;4.88;;;9.80;99.90;;;;;;5029507;28;20135;-72
2022/01/29 09:53:44;;;;;;;13.38;4.85;;;9.50;99.90;;;;;;5035219;28;20507;-67
2022/01/29 09:56:11;;;;;;;10.40;4.20;;;9.30;99.90;;;;;;5035659;28;20481;-65
2022/01/29 09:58:37;;;;;;;13.43;4.60;;;10.30;99.90;;;;;;5038678;28;20366;-68
2022/01/29 10:01:03;;;;;;;14.52;4.93;;;10.10;99.90;;;;;;5052726;28;20404;-68
2022/01/29 10:03:29;;;;;;;11.55;4.30;;;10.60;99.90;;;;;;5055843;28;20053;-67
2022/01/29 10:06:00;;;;;;;15.48;4.97;;;10.20;99.90;;;;;;5055928;28;20131;-68
2022/01/29 10:08:27;;;;;;;13.40;4.05;;;9.80;99.90;;;;;;5055433;28;20132;-65
2022/01/29 10:10:58;;;;;;;14.13;3.92;;;10.40;99.90;;;;;;5071010;28;20057;-69
2022/01/29 10:13:34;;;;;;;18.83;4.05;;;10.00;99.90;;;;;;5054417;28;20416;-68
2022/01/29 10:16:19;;;;;;;12.68;3.47;;;9.70;99.90;;;;;;5055487;28;20554;-66
2022/01/29 10:19:06;;;;;;;13.57;3.70;;;9.50;99.90;;;;;;5055685;28;20049;-68
2022/01/29 10:21:33;;;;;;;13.77;4.00;;;10.00;99.90;;;;;;5054784;28;20114;-68
2022/01/29 10:24:04;;;;;;;12.68;3.65;;;8.00;99.90;;;;;;5055528;28;20045;-67
2022/01/29 10:26:36;;;;;;;10.75;3.53;;;10.00;99.90;;;;;;5055275;28;20045;-67
2022/01/29 10:29:06;;;;;;;10.48;2.60;;;9.90;99.90;;;;;;5055443;28;20481;-72
2022/01/29 10:31:43;;;;;;;19.35;3.53;;;10.70;99.90;;;;;;5055449;28;20049;-70
2022/01/29 10:34:15;;;;;;;15.60;3.50;;;9.80;99.90;;;;;;5055212;28;20128;-66
2022/01/29 10:36:41;;;;;;;11.50;3.60;;;10.00;99.90;;;;;;5053661;28;20053;-72
2022/01/29 10:39:07;;;;;;;12.75;3.55;;;9.90;99.90;;;;;;5055089;28;20083;-67
2022/01/29 10:41:32;;;;;;;14.27;3.30;;;10.00;99.90;;;;;;5051672;28;20052;-69
2022/01/29 10:44:17;;;;;;;16.73;3.22;;;9.90;99.90;;;;;;5034480;28;20050;-68
2022/01/29 10:46:46;;;;;;;10.93;2.88;;;10.10;99.90;;;;;;5035326;28;20049;-68
2022/01/29 10:49:21;;;;;;;13.50;3.35;;;10.90;99.90;;;;;;5035254;28;20049;-68
2022/01/29 10:52:05;;;;;;;15.18;3.67;;;10.00;99.90;;;;;;5034921;28;20041;-68
2022/01/29 10:54:36;;;;;;;18.83;4.03;;;10.00;99.90;;;;;;5033605;28;20409;-68
2022/01/29 10:57:05;;;;;;;15.05;3.63;;;9.90;99.90;;;;;;5032525;28;20472;-69
2022/01/29 10:59:34;;;;;;;17.02;3.38;;;10.10;99.90;;;;;;5034675;28;20049;-67
2022/01/29 11:02:09;;;;;;;12.27;3.30;;;10.00;99.90;;;;;;5034891;28;20041;-68
2022/01/29 11:04:37;;;;;;;14.27;3.25;;;10.40;99.90;;;;;;5034797;28;20470;-66
2022/01/29 11:07:07;;;;;;;11.45;2.80;;;10.20;99.90;;;;;;5034174;28;20378;-66
2022/01/29 11:09:34;;;;;;;15.63;3.25;;;10.10;99.90;;;;;;5034925;28;20050;-72
2022/01/29 11:12:03;;;;;;;16.98;2.78;;;10.20;99.90;;;;;;5034810;28;20053;-67
2022/01/29 11:14:31;;;;;;;13.00;3.30;;;10.00;99.90;;;;;;5034341;28;20041;-68
2022/01/29 11:16:59;;;;;;;11.75;3.17;;;11.40;99.90;;;;;;5034490;28;20124;-68
2022/01/29 11:19:24;;;;;;;13.52;3.17;;;11.10;99.90;;;;;;5031595;28;20106;-71
2022/01/29 11:21:56;;;;;;;17.77;3.72;;;10.00;99.90;;;;;;5033031;28;20045;-68
2022/01/29 11:24:24;;;;;;;16.00;3.30;;;9.80;99.90;;;;;;5034104;28;20053;-69
2022/01/29 11:26:50;;;;;;;8.63;3.00;;;11.00;99.90;;;;;;5034354;28;20068;-67
2022/01/29 11:29:24;;;;;;;15.48;3.35;;;10.20;99.90;;;;;;5049497;28;20045;-68
2022/01/29 11:32:22;;;;;;;19.65;3.58;;;10.00;99.90;;;;;;5035768;28;20553;-67
2022/01/29 11:35:11;;;;;;;14.18;3.00;;;10.10;99.90;;;;;;5053449;28;20132;-69
2022/01/29 11:37:38;;;;;;;13.70;3.47;;;9.90;99.90;;;;;;5053647;28;20457;-69
2022/01/29 11:40:27;;;;;;;14.95;2.78;;;10.80;99.90;;;;;;5054176;28;20080;-67
2022/01/29 11:42:58;;;;;;;13.52;2.80;;;10.30;99.90;;;;;;5054258;28;20072;-68
2022/01/29 11:46:03;;;;;;;14.27;2.80;;;10.30;99.90;;;;;;5054215;28;20041;-68
2022/01/29 11:48:30;;;;;;;13.88;2.67;;;10.20;99.90;;;;;;5053768;28;20479;-68
2022/01/29 11:51:05;;;;;;;10.25;2.22;;;10.10;99.90;;;;;;5053793;28;20492;-69
2022/01/29 11:53:46;;;;;;;8.85;2.75;;;11.50;99.90;;;;;;5053946;28;20461;-67
2022/01/29 11:56:31;;;;;;;8.20;2.50;;;10.20;99.90;;;;;;5049945;28;20435;-68
2022/01/29 11:59:28;;;;;;;8.27;2.70;;;10.60;99.90;;;;;;5050124;28;20068;-69
2022/01/29 12:01:55;;;;;;;14.35;2.60;;;10.50;99.90;;;;;;5043276;28;20037;-66
2022/01/29 12:04:23;;;;;;;9.45;2.70;;;10.70;99.90;;;;;;5033429;28;20061;-67
2022/01/29 12:07:08;;;;;;;14.68;2.97;;;10.50;99.90;;;;;;5033363;28;20072;-68
2022/01/29 12:09:48;;;;;;;14.00;2.90;;;10.40;99.90;;;;;;5032481;28;20054;-67
2022/01/29 12:12:20;;;;;;;14.65;2.65;;;10.70;99.90;;;;;;5033636;28;20049;-67
2022/01/29 12:14:48;;;;;;;11.70;2.47;;;10.40;99.90;;;;;;5032802;28;20042;-66
2022/01/29 12:17:36;;;;;;;11.43;3.50;;;10.60;99.90;;;;;;5033188;28;20138;-68
2022/01/29 12:20:04;;;;;;;11.40;2.78;;;10.70;99.90;;;;;;5033127;28;20099;-68
2022/01/29 12:22:34;;;;;;;11.27;2.83;;;10.80;99.90;;;;;;5033300;28;20052;-69
2022/01/29 12:25:02;;;;;;;13.43;2.55;;;11.20;99.90;;;;;;5033442;28;20406;-65
2022/01/29 12:27:56;;;;;;;11.93;2.42;;;11.80;99.90;;;;;;5032677;28;20155;-68
2022/01/29 12:30:29;;;;;;;14.35;3.17;;;11.30;99.90;;;;;;5035818;28;20464;-69
2022/01/29 12:32:55;;;;;;;12.55;2.80;;;10.80;99.90;;;;;;5025159;28;20048;-68
2022/01/29 12:35:31;;;;;;;14.57;2.70;;;11.00;99.90;;;;;;5027343;28;20064;-69
2022/01/29 12:37:56;;;;;;;14.88;3.63;;;11.00;99.90;;;;;;5033091;28;20057;-68
2022/01/29 12:40:23;;;;;;;13.35;2.58;;;11.80;99.90;;;;;;5033270;28;20102;-68
2022/01/29 12:42:57;;;;;;;11.65;2.63;;;12.10;99.90;;;;;;5032976;28;20049;-67
2022/01/29 12:45:26;;;;;;;19.65;4.47;;;11.30;99.90;;;;;;5032916;28;20052;-67
2022/01/29 12:48:11;;;;;;;17.13;3.00;;;11.00;99.90;;;;;;5033034;28;20521;-68
2022/01/29 12:50:39;;;;;;;16.92;4.65;;;10.80;99.90;;;;;;5033219;28;20457;-68
2022/01/29 12:53:12;;;;;;;12.13;3.42;;;11.20;99.90;;;;;;5032888;28;20056;-68
2022/01/29 12:55:38;;;;;;;14.07;3.60;;;10.50;99.90;;;;;;5032853;28;20154;-69
2022/01/29 12:58:04;;;;;;;11.60;2.83;;;10.90;99.90;;;;;;5031788;28;20485;-69